Time;durP1;ratioP1;P1;durP2;ratioP2;P2;SDS_P1;SDS_P2;PMS_P1;PMS_P2;Temp;Humidity;BMP_temperature;BMP_pressure;BME280_temperature;BME280_humidity;BME280_pressure;Samples;Min_cycle;Max_cycle;Signal;HPM_P1;HPM_P2
2021/04/02 00:00:58;;;;;;;23.00;10.57;;;;;;;9.44;44.83;99998.59;126341;1096;104153;-78
2021/04/02 00:03:33;;;;;;;21.30;10.47;;;;;;;9.46;45.09;99996.02;126338;1096;104203;-78
2021/04/02 00:06:04;;;;;;;20.40;10.57;;;;;;;9.44;45.37;99993.34;126302;1096;104155;-78
2021/04/02 00:08:33;;;;;;;21.00;10.63;;;;;;;9.43;45.46;99988.06;126265;1099;104316;-77
2021/04/02 00:11:06;;;;;;;23.67;10.90;;;;;;;9.42;45.08;99983.66;126318;1099;104166;-79
2021/04/02 00:13:36;;;;;;;22.53;10.57;;;;;;;9.39;45.06;99973.95;126287;1099;104592;-77
2021/04/02 00:16:07;;;;;;;22.57;10.87;;;;;;;9.37;45.60;99978.27;126229;1099;104143;-77
2021/04/02 00:18:36;;;;;;;20.05;9.60;;;;;;;9.37;45.01;99975.65;126279;1098;104204;-77
2021/04/02 00:21:08;;;;;;;21.13;10.60;;;;;;;9.36;45.03;99973.86;126245;1099;104281;-77
2021/04/02 00:23:38;;;;;;;25.87;10.77;;;;;;;9.38;45.07;99964.34;126292;1099;104248;-77
2021/04/02 00:26:08;;;;;;;22.50;10.40;;;;;;;9.40;45.76;99953.92;126307;1099;104143;-78
2021/04/02 00:28:37;;;;;;;27.10;10.83;;;;;;;9.40;45.17;99961.78;126247;1098;104201;-78
2021/04/02 00:31:07;;;;;;;20.83;10.20;;;;;;;9.41;45.57;99953.05;126284;1099;104223;-78
2021/04/02 00:33:36;;;;;;;21.10;10.13;;;;;;;9.39;45.54;99958.25;126268;1099;104300;-78
2021/04/02 00:36:06;;;;;;;20.03;11.13;;;;;;;9.39;45.66;99952.12;126264;1099;104178;-77
2021/04/02 00:38:34;;;;;;;21.10;10.43;;;;;;;9.38;45.50;99963.44;126192;1099;104161;-77
2021/04/02 00:41:06;;;;;;;20.67;10.37;;;;;;;9.37;45.45;99953.82;126237;1098;104149;-78
2021/04/02 00:43:37;;;;;;;20.07;10.83;;;;;;;9.37;46.10;99953.82;126265;1099;104267;-78
2021/04/02 00:46:11;;;;;;;21.27;10.43;;;;;;;9.38;45.58;99955.58;126280;1099;104178;-77
2021/04/02 00:48:42;;;;;;;23.23;10.70;;;;;;;9.38;46.13;99951.25;126250;1099;104146;-77
2021/04/02 00:51:13;;;;;;;21.07;10.80;;;;;;;9.38;46.29;99945.10;126262;1099;110575;-77
2021/04/02 00:53:45;;;;;;;23.53;11.17;;;;;;;9.38;45.71;99942.48;126319;1099;104143;-77
2021/04/02 00:56:15;;;;;;;20.63;10.33;;;;;;;9.38;46.02;99942.48;126255;1099;104271;-78
2021/04/02 00:58:45;;;;;;;21.37;11.10;;;;;;;9.37;46.40;99932.87;126252;1099;104812;-78
2021/04/02 01:01:15;;;;;;;22.57;10.93;;;;;;;9.35;45.88;99931.08;126193;1099;104137;-78
2021/04/02 01:03:45;;;;;;;22.13;11.30;;;;;;;9.37;45.94;99930.25;126274;1099;104094;-78
2021/04/02 01:06:19;;;;;;;22.37;10.70;;;;;;;9.37;46.21;99919.78;126295;1099;104201;-78
2021/04/02 01:08:49;;;;;;;22.40;10.63;;;;;;;9.39;45.97;99918.09;126272;1099;104171;-78
2021/04/02 01:11:20;;;;;;;23.73;11.40;;;;;;;9.38;46.27;99913.68;126184;1099;104271;-77
2021/04/02 01:13:53;;;;;;;22.87;10.90;;;;;;;9.38;46.06;99908.44;126274;1097;104150;-78
2021/04/02 01:16:24;;;;;;;20.63;10.23;;;;;;;9.38;46.50;99897.97;126305;1099;104341;-77
2021/04/02 01:18:58;;;;;;;19.93;10.80;;;;;;;9.38;46.31;99890.11;126273;1099;104203;-78
2021/04/02 01:21:31;;;;;;;20.10;10.73;;;;;;;9.34;46.18;99881.28;126297;1096;104139;-77
2021/04/02 01:24:12;;;;;;;26.00;10.70;;;;;;;9.32;46.94;99872.51;126232;1099;104201;-78
2021/04/02 01:26:58;;;;;;;23.33;11.47;;;;;;;9.30;46.88;99879.41;126331;1096;104181;-78
2021/04/02 01:29:32;;;;;;;23.87;11.30;;;;;;;9.28;46.90;99863.65;126290;1099;104189;-78
2021/04/02 01:32:03;;;;;;;23.03;10.83;;;;;;;9.26;46.45;99864.47;126324;1099;108136;-78
2021/04/02 01:34:35;;;;;;;21.83;10.60;;;;;;;9.27;46.53;99855.75;126314;1099;106244;-78
2021/04/02 01:37:07;;;;;;;22.33;11.40;;;;;;;9.27;46.49;99866.22;126266;1097;104336;-78
2021/04/02 01:39:40;;;;;;;22.80;10.80;;;;;;;9.29;46.62;99868.05;126310;1098;104146;-78
2021/04/02 01:42:17;;;;;;;21.93;10.77;;;;;;;9.28;46.92;99866.27;126229;1096;104191;-78
2021/04/02 01:44:51;;;;;;;21.90;10.57;;;;;;;9.28;47.31;99868.89;126338;1096;104271;-78
2021/04/02 01:47:22;;;;;;;23.92;10.88;;;;;;;9.27;46.94;99864.52;126308;1096;104146;-78
2021/04/02 01:49:54;;;;;;;22.30;11.80;;;;;;;9.26;46.78;99862.73;126256;1099;104146;-79
2021/04/02 01:52:25;;;;;;;21.57;10.63;;;;;;;9.27;47.53;99863.59;126290;1099;104246;-78
2021/04/02 01:54:55;;;;;;;23.05;11.30;;;;;;;9.22;46.87;99857.34;126305;1099;104277;-78
2021/04/02 01:57:27;;;;;;;22.03;11.03;;;;;;;9.20;47.18;99857.30;126313;1098;104238;-78
2021/04/02 01:59:57;;;;;;;22.00;11.25;;;;;;;9.20;47.20;99852.06;126288;1099;104254;-78
2021/04/02 02:02:27;;;;;;;22.80;11.33;;;;;;;9.20;47.63;99857.30;126139;1096;104146;-77
2021/04/02 02:04:59;;;;;;;24.70;12.10;;;;;;;9.20;47.07;99852.06;126220;1099;104162;-77
2021/04/02 02:07:28;;;;;;;27.53;13.93;;;;;;;9.18;47.09;99848.52;126147;1099;104188;-77
2021/04/02 02:10:02;;;;;;;28.23;14.17;;;;;;;9.18;47.36;99848.52;126144;1099;104258;-78
2021/04/02 02:12:38;;;;;;;26.50;12.57;;;;;;;9.18;47.48;99831.08;126177;1096;104175;-77
2021/04/02 02:15:18;;;;;;;26.80;13.70;;;;;;;9.17;47.83;99831.91;126255;1099;104592;-77
2021/04/02 02:17:54;;;;;;;26.20;12.50;;;;;;;9.17;48.02;99824.05;126234;1099;104233;-78
2021/04/02 02:20:25;;;;;;;24.67;12.53;;;;;;;9.15;48.00;99824.87;126293;1098;104265;-78
2021/04/02 02:22:56;;;;;;;23.57;12.47;;;;;;;9.14;47.62;99825.70;126216;1099;104140;-78
2021/04/02 02:25:26;;;;;;;24.23;12.23;;;;;;;9.13;47.90;99813.44;126274;1099;104298;-78
2021/04/02 02:28:02;;;;;;;22.40;11.53;;;;;;;9.12;47.59;99806.45;126238;1099;104200;-78
2021/04/02 02:30:34;;;;;;;22.93;12.57;;;;;;;9.09;48.12;99812.47;126332;1099;104143;-78
2021/04/02 02:33:13;;;;;;;22.13;10.80;;;;;;;9.08;47.86;99813.30;126248;1098;104152;-77
2021/04/02 02:35:49;;;;;;;23.83;12.40;;;;;;;9.07;47.61;99808.02;126279;1099;104133;-78
2021/04/02 02:38:19;;;;;;;28.37;12.43;;;;;;;9.04;48.02;99800.98;126279;1099;104152;-78
2021/04/02 02:40:48;;;;;;;26.20;12.00;;;;;;;9.04;48.00;99805.30;126282;1099;104146;-77
2021/04/02 02:43:18;;;;;;;21.20;11.90;;;;;;;9.02;48.09;99802.64;126209;1099;104146;-78
2021/04/02 02:45:53;;;;;;;23.77;12.50;;;;;;;9.02;48.42;99801.77;126173;1099;104169;-78
2021/04/02 02:48:22;;;;;;;21.63;11.10;;;;;;;9.01;47.84;99798.27;126297;1099;104126;-77
2021/04/02 02:50:55;;;;;;;21.30;11.23;;;;;;;8.98;48.50;99796.44;126209;1099;104126;-77
2021/04/02 02:53:32;;;;;;;25.60;11.90;;;;;;;9.00;48.66;99799.98;126159;1099;104332;-78
2021/04/02 02:56:05;;;;;;;23.10;11.80;;;;;;;9.02;48.71;99799.15;126235;1099;104204;-78
2021/04/02 02:58:40;;;;;;;24.07;12.23;;;;;;;9.02;48.00;99789.55;126267;1099;104217;-77
2021/04/02 03:01:11;;;;;;;23.20;12.27;;;;;;;9.00;48.81;99784.27;126292;1099;104143;-77
2021/04/02 03:03:42;;;;;;;25.65;13.15;;;;;;;8.99;48.56;99779.91;126154;1098;104252;-77
2021/04/02 03:06:15;;;;;;;24.80;12.67;;;;;;;8.97;48.91;99778.95;126185;1099;104201;-78
2021/04/02 03:08:48;;;;;;;22.20;12.43;;;;;;;8.97;48.97;99785.92;126291;1099;104214;-78
2021/04/02 03:11:23;;;;;;;25.93;12.30;;;;;;;8.95;48.65;99779.77;126225;1099;104271;-77
2021/04/02 03:13:57;;;;;;;23.43;12.03;;;;;;;8.93;48.93;99771.87;126233;1099;104271;-78
2021/04/02 03:16:29;;;;;;;23.80;12.83;;;;;;;8.90;49.18;99768.28;126282;1099;104178;-77
2021/04/02 03:19:02;;;;;;;26.60;13.65;;;;;;;8.87;48.56;99783.88;126270;1099;104156;-78
2021/04/02 03:21:32;;;;;;;27.30;13.70;;;;;;;8.86;48.53;99789.94;126227;1099;104146;-77
2021/04/02 03:24:11;;;;;;;26.03;12.43;;;;;;;8.83;49.31;99779.38;126238;1096;104173;-77
2021/04/02 03:26:41;;;;;;;27.67;13.03;;;;;;;8.81;48.89;99774.10;126249;1096;104159;-77
2021/04/02 03:29:15;;;;;;;25.77;13.47;;;;;;;8.77;49.37;99769.61;126185;1096;104140;-77
2021/04/02 03:31:46;;;;;;;25.12;12.43;;;;;;;8.73;49.31;99762.52;126278;1096;104149;-78
2021/04/02 03:34:18;;;;;;;24.10;12.23;;;;;;;8.69;49.12;99753.67;126241;1099;104137;-77
2021/04/02 03:36:51;;;;;;;27.63;14.03;;;;;;;8.65;49.28;99754.44;126208;1099;104156;-77
2021/04/02 03:39:27;;;;;;;27.03;14.07;;;;;;;8.60;49.66;99751.67;126198;1099;104209;-78
2021/04/02 03:42:01;;;;;;;24.00;12.30;;;;;;;8.59;49.25;99754.23;126250;1099;104121;-78
2021/04/02 03:44:34;;;;;;;25.88;14.10;;;;;;;8.55;49.15;99750.61;126059;1096;104159;-78
2021/04/02 03:47:11;;;;;;;26.82;14.40;;;;;;;8.54;49.17;99751.48;126191;1096;104185;-77
2021/04/02 03:49:41;;;;;;;26.67;13.40;;;;;;;8.54;49.23;99742.72;126280;1096;104283;-77
2021/04/02 03:52:17;;;;;;;29.77;14.17;;;;;;;8.53;49.54;99748.81;126230;1099;104120;-78
2021/04/02 03:54:50;;;;;;;25.90;13.70;;;;;;;8.53;49.67;99738.36;126212;1099;104146;-77
2021/04/02 03:57:25;;;;;;;26.73;13.87;;;;;;;8.52;49.88;99740.06;126130;1099;104242;-78
2021/04/02 03:59:58;;;;;;;27.07;14.53;;;;;;;8.52;49.58;99732.22;126273;1099;105443;-77
2021/04/02 04:02:29;;;;;;;29.53;14.17;;;;;;;8.54;50.17;99735.78;126280;1099;104194;-77
2021/04/02 04:05:01;;;;;;;25.80;14.03;;;;;;;8.55;49.85;99731.44;126253;1096;104139;-78
2021/04/02 04:07:32;;;;;;;24.90;13.10;;;;;;;8.56;49.63;99738.45;126283;1096;104267;-78
2021/04/02 04:10:03;;;;;;;31.03;14.60;;;;;;;8.55;49.63;99734.05;126281;1096;104152;-78
2021/04/02 04:12:37;;;;;;;25.73;13.57;;;;;;;8.57;50.40;99740.20;126339;1096;104306;-78
2021/04/02 04:15:13;;;;;;;33.53;14.67;;;;;;;8.59;50.37;99736.81;126244;1099;104143;-77
2021/04/02 04:17:48;;;;;;;27.60;13.93;;;;;;;8.61;49.89;99724.66;126308;1098;104753;-78
2021/04/02 04:20:20;;;;;;;31.90;14.00;;;;;;;8.64;49.90;99729.11;126265;1099;104179;-78
2021/04/02 04:22:58;;;;;;;27.73;14.00;;;;;;;8.68;50.30;99727.47;126256;1099;104730;-78
2021/04/02 04:25:27;;;;;;;30.10;14.97;;;;;;;8.72;49.97;99724.12;126222;1096;104156;-78
2021/04/02 04:27:59;;;;;;;29.37;14.93;;;;;;;8.75;50.59;99721.59;126299;1096;104137;-78
2021/04/02 04:30:29;;;;;;;30.03;15.40;;;;;;;8.78;50.65;99724.30;126261;1099;104412;-77
2021/04/02 04:33:01;;;;;;;27.73;14.20;;;;;;;8.80;50.68;99718.29;126244;1096;104259;-78
2021/04/02 04:35:32;;;;;;;29.77;15.07;;;;;;;8.85;50.59;99721.05;126153;1099;104396;-78
2021/04/02 04:38:04;;;;;;;25.67;14.13;;;;;;;8.89;50.75;99724.63;126154;1099;104341;-77
2021/04/02 04:40:34;;;;;;;27.43;14.83;;;;;;;8.93;50.85;99730.00;126176;1099;104346;-78
2021/04/02 04:43:07;;;;;;;30.83;15.33;;;;;;;8.96;50.94;99722.25;126201;1099;105003;-77
2021/04/02 04:45:36;;;;;;;28.47;14.53;;;;;;;9.00;50.30;99717.98;126194;1096;104220;-77
2021/04/02 04:48:07;;;;;;;27.27;14.63;;;;;;;9.05;51.06;99721.61;126137;1099;104169;-76
2021/04/02 04:50:36;;;;;;;27.93;13.73;;;;;;;9.11;50.94;99719.17;126084;1099;104300;-76
2021/04/02 04:53:08;;;;;;;31.33;15.40;;;;;;;9.15;51.16;99713.20;126087;1096;104149;-76
2021/04/02 04:55:39;;;;;;;28.57;15.20;;;;;;;9.21;50.50;99716.82;126172;1096;104206;-77
2021/04/02 04:58:12;;;;;;;29.50;14.40;;;;;;;9.28;50.53;99709.19;126143;1098;104319;-76
2021/04/02 05:00:44;;;;;;;29.17;15.23;;;;;;;9.37;50.52;99703.33;126132;1096;104271;-76
2021/04/02 05:03:16;;;;;;;31.45;15.25;;;;;;;9.47;50.65;99704.46;126007;1099;104319;-77
2021/04/02 05:05:47;;;;;;;32.30;15.37;;;;;;;9.58;51.12;99702.14;125939;1099;104143;-77
2021/04/02 05:08:20;;;;;;;29.37;15.20;;;;;;;9.70;51.10;99710.33;125991;1099;104143;-77
2021/04/02 05:10:51;;;;;;;26.17;13.88;;;;;;;9.84;51.18;99708.95;125791;1099;104652;-77
2021/04/02 05:13:24;;;;;;;31.20;16.40;;;;;;;9.97;51.19;99712.79;125182;1099;104175;-77
2021/04/02 05:15:54;;;;;;;29.27;15.03;;;;;;;10.15;50.55;99719.34;125228;1098;103983;-77
2021/04/02 05:18:23;;;;;;;31.83;15.77;;;;;;;10.31;51.12;99713.59;125963;1099;104168;-77
2021/04/02 05:20:53;;;;;;;26.47;14.80;;;;;;;10.48;50.52;99721.03;126053;1099;104181;-77
2021/04/02 05:23:22;;;;;;;31.17;15.93;;;;;;;10.55;50.54;99715.97;125968;1099;104902;-76
2021/04/02 05:25:51;;;;;;;28.10;15.15;;;;;;;10.66;50.89;99715.30;125262;1099;104195;-77
2021/04/02 05:28:21;;;;;;;29.83;15.27;;;;;;;10.76;50.58;99712.05;125918;1099;104205;-77
2021/04/02 05:30:51;;;;;;;30.70;15.53;;;;;;;10.86;50.78;99710.50;125163;1099;104185;-77
2021/04/02 05:33:20;;;;;;;29.03;15.70;;;;;;;10.92;50.55;99705.39;125713;1099;104332;-78
2021/04/02 05:35:49;;;;;;;32.73;15.60;;;;;;;11.02;50.70;99714.38;127119;1096;101895;-78
2021/04/02 05:38:18;;;;;;;31.50;15.77;;;;;;;11.12;51.05;99714.56;127053;1099;101758;-79
2021/04/02 05:40:47;;;;;;;29.93;16.83;;;;;;;11.19;50.42;99701.56;125731;1099;104166;-78
2021/04/02 05:43:21;;;;;;;27.60;14.67;;;;;;;11.29;50.91;99704.41;125734;1098;104172;-78
2021/04/02 05:45:52;;;;;;;29.47;16.57;;;;;;;11.37;50.52;99701.06;125730;1096;104140;-78
2021/04/02 05:48:22;;;;;;;30.10;15.53;;;;;;;11.45;50.64;99709.97;125707;1099;104300;-77
2021/04/02 05:50:54;;;;;;;30.00;15.90;;;;;;;11.53;50.39;99708.40;125867;1096;104363;-77
2021/04/02 05:53:29;;;;;;;28.70;15.10;;;;;;;11.61;50.80;99708.51;125907;1096;104162;-78
2021/04/02 05:56:03;;;;;;;31.47;16.13;;;;;;;11.70;50.46;99716.57;125765;1096;104214;-77
2021/04/02 05:58:33;;;;;;;30.40;15.37;;;;;;;11.75;50.45;99707.05;125962;1098;104152;-78
2021/04/02 06:01:01;;;;;;;27.57;15.30;;;;;;;11.80;50.35;99713.27;125840;1099;104143;-78
2021/04/02 06:03:33;;;;;;;31.27;15.80;;;;;;;11.81;50.53;99698.37;125982;1099;105389;-77
2021/04/02 06:06:03;;;;;;;26.10;15.33;;;;;;;11.84;50.63;99704.59;125873;1099;104213;-78
2021/04/02 06:08:34;;;;;;;28.57;15.70;;;;;;;11.89;50.39;99707.30;125897;1096;104204;-77
2021/04/02 06:11:04;;;;;;;26.77;15.17;;;;;;;11.93;50.37;99693.36;125893;1096;104156;-78
2021/04/02 06:13:33;;;;;;;28.33;15.20;;;;;;;11.99;50.40;99692.59;125765;1099;104707;-77
2021/04/02 06:16:12;;;;;;;29.23;15.23;;;;;;;12.05;50.27;99688.31;125735;1096;104312;-77
2021/04/02 06:18:55;;;;;;;28.53;14.87;;;;;;;12.09;50.21;99684.01;125929;1099;104235;-80
2021/04/02 06:21:27;;;;;;;28.13;15.53;;;;;;;12.17;50.33;99682.38;125895;1099;104265;-80
2021/04/02 06:24:00;;;;;;;30.47;15.40;;;;;;;12.28;50.24;99676.39;125850;1099;104226;-79
2021/04/02 06:26:29;;;;;;;27.80;14.90;;;;;;;12.37;50.27;99681.79;125840;1096;104165;-79
2021/04/02 06:28:58;;;;;;;34.30;16.20;;;;;;;12.43;50.21;99673.99;125749;1096;104207;-79
2021/04/02 06:31:34;;;;;;;29.57;15.50;;;;;;;12.53;50.11;99678.54;125883;1096;104327;-78
2021/04/02 06:34:07;;;;;;;31.95;15.65;;;;;;;12.65;50.02;99676.94;125880;1096;104162;-79
2021/04/02 06:36:37;;;;;;;26.23;15.73;;;;;;;12.78;50.01;99684.16;126008;1096;104236;-79
2021/04/02 06:39:07;;;;;;;30.13;15.47;;;;;;;12.88;50.08;99680.77;125679;1099;104259;-79
2021/04/02 06:41:40;;;;;;;29.33;16.37;;;;;;;12.98;50.10;99673.89;125885;1099;102423;-78
2021/04/02 06:44:10;;;;;;;30.93;15.50;;;;;;;12.99;49.88;99669.50;126008;1099;104209;-80
2021/04/02 06:46:41;;;;;;;27.27;15.33;;;;;;;13.02;50.13;99674.80;125893;1096;104667;-78
2021/04/02 06:49:12;;;;;;;31.93;15.63;;;;;;;13.04;50.10;99663.44;125932;1096;104129;-79
2021/04/02 06:51:43;;;;;;;27.93;15.43;;;;;;;13.16;50.20;99669.70;126044;1096;104238;-78
2021/04/02 06:54:18;;;;;;;24.23;13.30;;;;;;;13.34;50.15;99667.32;125983;1096;104143;-78
2021/04/02 06:56:55;;;;;;;28.03;14.50;;;;;;;13.53;50.33;99663.13;126046;1096;104245;-79
2021/04/02 06:59:26;;;;;;;26.17;15.27;;;;;;;13.72;50.04;99665.95;125697;1099;104217;-80
2021/04/02 07:01:56;;;;;;;25.17;14.17;;;;;;;13.83;49.59;99667.79;125934;1099;104153;-79
2021/04/02 07:04:26;;;;;;;29.67;13.97;;;;;;;13.95;49.56;99661.75;125333;1099;104274;-78
2021/04/02 07:06:57;;;;;;;27.20;14.67;;;;;;;14.10;49.95;99665.38;125278;1099;104208;-79
2021/04/02 07:09:31;;;;;;;30.90;14.80;;;;;;;14.22;49.20;99660.20;125778;1099;104176;-77
2021/04/02 07:12:01;;;;;;;;;;;;;;;14.31;49.53;99649.72;125205;1099;104290;-78
2021/04/02 07:14:38;;;;;;;27.87;14.70;;;;;;;14.34;48.80;99660.30;125091;1099;104194;-78
2021/04/02 07:17:08;;;;;;;25.03;14.43;;;;;;;14.35;49.64;99661.17;125518;1099;104217;-81
2021/04/02 07:19:42;;;;;;;25.87;14.63;;;;;;;14.51;49.08;99659.53;125521;1099;104159;-80
2021/04/02 07:22:17;;;;;;;27.93;14.63;;;;;;;14.69;48.80;99664.96;125612;1099;104395;-78
2021/04/02 07:24:55;;;;;;;28.80;15.70;;;;;;;14.77;48.75;99657.05;125601;1099;104163;-78
2021/04/02 07:27:29;;;;;;;29.13;15.60;;;;;;;14.95;49.46;99653.62;125572;1099;104214;-78
2021/04/02 07:30:03;;;;;;;27.67;14.77;;;;;;;15.10;49.43;99653.69;125741;1099;104772;-79
2021/04/02 07:32:37;;;;;;;25.87;14.50;;;;;;;15.24;48.98;99645.81;126024;1098;104136;-80
2021/04/02 07:35:14;;;;;;;28.93;14.50;;;;;;;15.42;48.39;99647.61;125857;1099;104188;-77
2021/04/02 07:37:52;;;;;;;27.80;15.50;;;;;;;15.57;48.80;99641.48;125726;1099;104168;-79
2021/04/02 07:40:25;;;;;;;33.77;15.27;;;;;;;15.62;48.32;99639.71;125162;1099;104146;-79
2021/04/02 07:42:57;;;;;;;26.83;14.60;;;;;;;15.72;48.01;99629.14;125814;1099;104239;-79
2021/04/02 07:45:30;;;;;;;27.70;14.60;;;;;;;15.87;47.90;99637.13;125117;1099;104354;-77
2021/04/02 07:48:15;;;;;;;30.65;15.75;;;;;;;16.05;48.45;99630.97;125074;1099;104201;-78
2021/04/02 07:50:48;;;;;;;26.93;13.90;;;;;;;16.28;48.05;99632.69;125188;1099;104347;-78
2021/04/02 07:53:23;;;;;;;27.73;14.60;;;;;;;16.39;48.14;99625.61;125783;1099;104172;-78
2021/04/02 07:56:01;;;;;;;27.30;13.20;;;;;;;16.51;47.78;99630.88;125908;1099;104212;-79
2021/04/02 07:58:53;;;;;;;29.93;13.03;;;;;;;16.57;47.60;99622.05;125847;1099;104489;-80
2021/04/02 08:01:29;;;;;;;28.63;14.03;;;;;;;16.57;47.44;99629.13;125125;1102;104332;-79
2021/04/02 08:04:12;;;;;;;30.90;13.07;;;;;;;16.45;47.54;99630.02;125046;1102;104300;-78
2021/04/02 08:06:45;;;;;;;30.70;13.90;;;;;;;16.40;47.36;99637.97;125012;1102;104384;-79
2021/04/02 08:09:44;;;;;;;24.23;12.10;;;;;;;16.36;48.06;99641.49;125101;1099;104217;-78
2021/04/02 08:15:35;;;;;;;23.83;11.50;;;;;;;15.79;46.85;99649.48;125143;1102;104214;-78
2021/04/02 08:18:19;;;;;;;25.10;12.93;;;;;;;15.58;46.75;99642.34;125096;1102;104274;-79
2021/04/02 08:21:13;;;;;;;26.87;13.30;;;;;;;15.44;46.70;99643.23;126018;1096;104153;-79
2021/04/02 08:23:43;;;;;;;23.97;13.07;;;;;;;15.40;46.79;99648.50;125919;1098;104169;-79
2021/04/02 08:26:15;;;;;;;25.30;13.23;;;;;;;15.33;46.80;99647.58;125739;1096;104210;-78
2021/04/02 08:28:47;;;;;;;28.30;13.33;;;;;;;15.26;47.50;99648.46;125742;1096;104143;-79
2021/04/02 08:31:35;;;;;;;33.60;14.97;;;;;;;15.16;46.91;99649.30;125786;1099;104232;-79
2021/04/02 08:34:04;;;;;;;26.47;14.17;;;;;;;15.01;47.42;99647.50;125834;1096;104232;-80
2021/04/02 08:36:34;;;;;;;32.77;15.43;;;;;;;14.92;46.83;99648.33;125953;1099;104268;-77
2021/04/02 08:39:05;;;;;;;29.20;14.30;;;;;;;14.85;47.18;99657.09;125830;1099;104278;-76
2021/04/02 08:41:35;;;;;;;26.20;13.80;;;;;;;14.77;46.98;99659.69;125906;1095;104153;-78
2021/04/02 08:44:08;;;;;;;32.37;14.57;;;;;;;14.71;47.67;99665.84;125909;1099;104169;-77
2021/04/02 08:46:45;;;;;;;31.87;14.67;;;;;;;14.67;47.78;99669.33;125995;1096;104171;-77
2021/04/02 08:49:15;;;;;;;28.37;13.80;;;;;;;14.56;48.74;99677.15;125827;1096;104217;-79
2021/04/02 08:51:50;;;;;;;27.27;12.40;;;;;;;14.41;48.87;99682.33;125717;1099;104277;-78
2021/04/02 08:54:21;;;;;;;26.37;13.27;;;;;;;14.26;49.18;99671.66;125863;1098;104143;-77
2021/04/02 08:56:59;;;;;;;23.03;11.30;;;;;;;13.96;49.80;99637.16;125910;1099;104172;-78
2021/04/02 09:00:04;;;;;;;26.07;12.03;;;;;;;13.80;50.04;99643.16;125966;1096;104136;-76
2021/04/02 09:02:37;;;;;;;24.50;11.17;;;;;;;13.51;50.38;99632.34;126026;1099;104303;-78
2021/04/02 09:05:09;;;;;;;24.07;11.13;;;;;;;13.27;50.92;99628.55;125900;1096;102601;-76
2021/04/02 09:07:41;;;;;;;27.23;12.33;;;;;;;13.08;51.72;99633.61;125717;1099;104275;-78
2021/04/02 09:10:16;;;;;;;26.63;11.87;;;;;;;12.90;52.40;99620.22;125655;1097;104242;-79
2021/04/02 09:12:51;;;;;;;;;;;;;;;12.67;53.51;99597.14;125772;1099;104156;-79
2021/04/02 09:15:22;;;;;;;30.17;13.80;;;;;;;12.64;52.70;99614.66;125729;1099;104146;-76
2021/04/02 09:17:52;;;;;;;29.80;14.10;;;;;;;12.55;52.96;99621.54;125774;1099;104322;-77
2021/04/02 09:20:21;;;;;;;29.67;13.80;;;;;;;12.49;53.04;99625.84;125685;1099;105367;-76
2021/04/02 09:22:50;;;;;;;30.20;14.47;;;;;;;12.43;53.18;99621.38;125851;1099;104290;-76
2021/04/02 09:25:32;;;;;;;25.90;13.83;;;;;;;12.39;53.12;99624.84;125601;1099;104283;-76
2021/04/02 09:28:07;;;;;;;24.40;13.37;;;;;;;12.33;53.51;99630.89;125793;1099;104133;-78
2021/04/02 09:30:36;;;;;;;26.63;14.77;;;;;;;12.30;53.87;99627.34;125845;1099;104334;-77
2021/04/02 09:33:07;;;;;;;26.90;13.73;;;;;;;12.29;54.24;99617.67;125142;1099;105158;-78
2021/04/02 09:35:37;;;;;;;29.57;14.10;;;;;;;12.28;54.58;99621.14;125111;1099;105589;-78
2021/04/02 09:38:06;;;;;;;26.13;13.00;;;;;;;12.27;54.68;99629.92;125811;1099;104133;-78
2021/04/02 09:40:36;;;;;;;24.13;13.00;;;;;;;12.26;54.48;99630.77;125752;1099;104288;-78
2021/04/02 09:43:06;;;;;;;27.50;14.00;;;;;;;12.24;54.64;99636.02;125145;1099;104319;-78
2021/04/02 09:45:38;;;;;;;26.83;14.03;;;;;;;12.22;54.95;99630.72;125155;1099;104296;-77
2021/04/02 09:48:21;;;;;;;27.63;13.87;;;;;;;12.23;55.44;99632.51;125814;1099;104341;-81
2021/04/02 09:50:51;;;;;;;27.23;14.47;;;;;;;12.26;55.98;99631.64;125705;1099;104235;-76
2021/04/02 09:53:21;;;;;;;27.47;14.70;;;;;;;12.27;55.73;99629.92;125663;1099;104290;-76
2021/04/02 09:55:51;;;;;;;25.40;12.73;;;;;;;12.26;56.14;99623.75;125066;1099;104150;-77
2021/04/02 09:58:20;;;;;;;26.07;13.00;;;;;;;12.23;56.71;99619.36;125648;1099;104178;-75
2021/04/02 10:00:49;;;;;;;28.23;13.97;;;;;;;12.23;57.03;99613.19;125068;1099;104243;-81
2021/04/02 10:03:18;;;;;;;24.03;12.60;;;;;;;12.24;56.39;99617.59;125836;1099;104149;-78
2021/04/02 10:05:51;;;;;;;27.27;13.37;;;;;;;12.22;57.22;99621.96;125678;1099;104226;-79
2021/04/02 10:08:22;;;;;;;27.13;14.37;;;;;;;12.22;56.88;99628.09;125533;1099;104168;-79
2021/04/02 10:10:52;;;;;;;25.70;13.77;;;;;;;12.25;57.59;99621.10;125560;1099;104335;-78
2021/04/02 10:13:21;;;;;;;26.50;14.03;;;;;;;12.26;57.44;99622.88;125598;1099;104215;-78
2021/04/02 10:15:51;;;;;;;26.50;14.63;;;;;;;12.29;57.55;99628.19;126373;1099;102114;-77
2021/04/02 10:18:21;;;;;;;30.27;13.80;;;;;;;12.28;57.14;99635.20;125709;1097;104178;-77
2021/04/02 10:20:51;;;;;;;26.53;14.07;;;;;;;12.30;57.62;99636.10;125631;1099;104246;-77
2021/04/02 10:23:20;;;;;;;27.67;14.43;;;;;;;12.32;57.98;99628.23;125732;1096;104168;-78
2021/04/02 10:25:49;;;;;;;33.27;16.70;;;;;;;12.35;58.14;99636.17;125969;1099;104184;-78
2021/04/02 10:28:20;;;;;;;34.30;18.10;;;;;;;12.37;58.50;99629.17;125808;1099;104236;-77
2021/04/02 10:30:49;;;;;;;34.40;19.43;;;;;;;12.38;58.38;99628.33;125956;1096;104176;-78
2021/04/02 10:33:24;;;;;;;38.60;20.33;;;;;;;12.39;58.52;99630.98;125860;1099;102796;-79
2021/04/02 10:36:00;;;;;;;34.70;19.17;;;;;;;12.40;58.69;99622.23;126001;1099;104563;-77
2021/04/02 10:38:45;;;;;;;29.20;15.90;;;;;;;12.35;58.86;99623.02;126078;1099;104130;-77
2021/04/02 10:41:46;;;;;;;30.40;15.13;;;;;;;12.25;58.97;99626.36;126114;1099;104185;-78
2021/04/02 10:44:21;;;;;;;32.10;16.67;;;;;;;12.17;58.91;99624.52;126056;1096;105346;-77
2021/04/02 10:47:03;;;;;;;30.30;17.17;;;;;;;12.18;59.55;99625.39;125913;1096;104178;-78
2021/04/02 10:50:06;;;;;;;34.87;18.87;;;;;;;12.17;59.37;99629.78;125875;1096;104320;-78
2021/04/02 10:52:38;;;;;;;36.93;20.07;;;;;;;12.17;59.66;99623.61;125958;1099;104268;-78
2021/04/02 10:55:12;;;;;;;34.17;18.97;;;;;;;12.17;59.66;99624.52;126111;1099;104146;-77
2021/04/02 10:57:46;;;;;;;34.40;19.27;;;;;;;12.18;59.97;99622.77;126077;1099;104201;-77
2021/04/02 11:00:18;;;;;;;33.38;20.48;;;;;;;12.19;60.19;99628.05;126172;1096;104254;-77
2021/04/02 11:02:49;;;;;;;38.40;20.33;;;;;;;12.20;60.37;99629.83;125794;1096;104171;-77
2021/04/02 11:05:33;;;;;;;35.60;20.50;;;;;;;12.21;60.24;99630.70;125794;1099;104812;-79
2021/04/02 11:08:06;;;;;;;37.40;20.70;;;;;;;12.25;60.43;99626.36;125960;1099;104158;-78
2021/04/02 11:10:41;;;;;;;36.83;19.97;;;;;;;12.26;60.36;99628.14;126072;1098;104156;-78
2021/04/02 11:13:15;;;;;;;34.37;20.30;;;;;;;12.27;60.65;99624.66;125848;1097;104453;-77
2021/04/02 11:15:45;;;;;;;36.40;20.03;;;;;;;12.28;60.55;99624.69;125852;1097;104207;-78
2021/04/02 11:18:15;;;;;;;40.50;20.60;;;;;;;12.28;60.83;99622.05;125894;1099;104220;-77
2021/04/02 11:20:46;;;;;;;36.60;21.27;;;;;;;12.30;60.65;99622.08;125830;1099;104158;-78
2021/04/02 11:23:18;;;;;;;30.73;18.83;;;;;;;12.29;61.07;99623.80;125825;1099;104285;-78
2021/04/02 11:25:47;;;;;;;34.80;19.80;;;;;;;12.29;60.92;99622.92;125943;1099;104242;-78
2021/04/02 11:28:19;;;;;;;34.60;20.47;;;;;;;12.32;61.05;99629.11;125863;1099;104284;-78
2021/04/02 11:31:03;;;;;;;32.50;20.17;;;;;;;12.33;61.40;99625.63;126073;1099;104134;-78
2021/04/02 11:33:39;;;;;;;43.20;25.77;;;;;;;12.35;61.67;99626.52;125977;1099;104187;-80